Time;durP1;ratioP1;P1;durP2;ratioP2;P2;SDS_P1;SDS_P2;PMS_P1;PMS_P2;Temp;Humidity;BMP_temperature;BMP_pressure;BME280_temperature;BME280_humidity;BME280_pressure;Samples;Min_cycle;Max_cycle;Signal;HPM_P1;HPM_P2
2022/01/21 00:02:04;;;;;;;13.20;3.10;;;;;;;-1.28;100.00;97020.69;5115493;28;24447;-78
2022/01/21 00:04:30;;;;;;;7.95;2.78;;;;;;;-1.25;100.00;97015.59;5115901;28;24797;-78
2022/01/21 00:06:58;;;;;;;7.85;2.88;;;;;;;-1.31;100.00;97025.75;5114577;28;24448;-78
2022/01/21 00:09:25;;;;;;;8.68;2.65;;;;;;;-1.34;100.00;97026.56;5115843;28;24430;-78
2022/01/21 00:11:51;;;;;;;7.80;2.60;;;;;;;-1.36;100.00;97024.88;5115012;28;25122;-77
2022/01/21 00:14:17;;;;;;;6.95;3.08;;;;;;;-1.38;100.00;97014.69;5114656;28;24966;-78
2022/01/21 00:16:44;;;;;;;9.55;2.85;;;;;;;-1.35;100.00;97029.97;5114739;28;24418;-78
2022/01/21 00:19:13;;;;;;;10.43;2.70;;;;;;;-1.38;100.00;97029.09;5115247;28;24429;-78
2022/01/21 00:30:13;;;;;;;8.85;2.72;;;;;;;-1.37;100.00;97031.66;5113344;28;24393;-78
2022/01/21 00:32:40;;;;;;;9.38;2.67;;;;;;;-1.36;100.00;97040.13;5113830;28;25011;-77
2022/01/21 00:35:08;;;;;;;8.85;2.67;;;;;;;-1.38;100.00;97050.28;5113917;28;24418;-77
2022/01/21 00:37:35;;;;;;;10.88;2.55;;;;;;;-1.41;100.00;97047.72;5113899;28;24438;-77
2022/01/21 00:40:04;;;;;;;8.90;2.67;;;;;;;-1.38;100.00;97042.66;5113576;28;24430;-77
2022/01/21 00:45:16;;;;;;;8.48;2.60;;;;;;;-1.44;100.00;97029.09;5102734;28;25024;-77
2022/01/21 00:47:44;;;;;;;9.85;2.63;;;;;;;-1.46;100.00;97035.00;5113165;28;24448;-77
2022/01/21 00:50:11;;;;;;;13.85;3.28;;;;;;;-1.48;100.00;97031.63;5113191;28;24424;-77
2022/01/21 00:52:37;;;;;;;17.30;3.10;;;;;;;-1.41;100.00;97029.94;5112852;28;24414;-77
2022/01/21 00:55:07;;;;;;;8.80;2.70;;;;;;;-1.40;100.00;97038.44;5112792;28;24529;-77
2022/01/21 00:57:34;;;;;;;9.20;2.72;;;;;;;-1.44;100.00;97027.41;5112447;28;24417;-77
2022/01/21 01:00:00;;;;;;;7.55;3.05;;;;;;;-1.48;100.00;97030.78;5112862;28;24409;-78
2022/01/21 01:02:28;;;;;;;8.90;2.53;;;;;;;-1.50;100.00;97033.28;5112991;28;24487;-78
2022/01/21 01:04:55;;;;;;;11.50;2.80;;;;;;;-1.39;100.00;97035.88;5113157;28;24444;-77
2022/01/21 01:07:21;;;;;;;10.80;3.03;;;;;;;-1.45;100.00;97033.31;5112996;28;24480;-77
2022/01/21 01:09:52;;;;;;;10.20;2.63;;;;;;;-1.38;100.00;97046.88;5113034;28;24482;-77
2022/01/21 01:12:29;;;;;;;10.32;3.00;;;;;;;-1.40;100.00;97051.13;5113689;28;24525;-77
2022/01/21 01:20:25;;;;;;;9.25;2.75;;;;;;;-1.41;100.00;97052.78;5113001;28;24505;-77
2022/01/21 01:22:56;;;;;;;10.02;2.60;;;;;;;-1.45;100.00;97048.53;5112939;28;24495;-77
2022/01/21 01:28:08;;;;;;;9.88;2.58;;;;;;;-1.44;100.00;97059.59;5112878;28;24447;-77
2022/01/21 01:30:36;;;;;;;7.30;2.57;;;;;;;-1.46;100.00;97057.03;5112856;28;24425;-77
2022/01/21 01:33:07;;;;;;;7.00;2.53;;;;;;;-1.41;100.00;97052.78;5112745;28;24422;-77
2022/01/21 01:35:34;;;;;;;6.55;2.88;;;;;;;-1.38;100.00;97057.06;5113056;28;24444;-78
2022/01/21 01:40:46;;;;;;;7.95;2.60;;;;;;;-1.32;100.00;97072.34;5082087;28;24440;-77
2022/01/21 01:51:30;;;;;;;8.10;2.60;;;;;;;-1.47;100.00;97047.72;5116350;28;24421;-78
2022/01/21 01:53:59;;;;;;;6.90;2.87;;;;;;;-1.50;100.00;97050.22;5116015;28;24409;-78
2022/01/21 01:56:31;;;;;;;8.02;2.70;;;;;;;-1.41;100.00;97054.50;5116041;28;24814;-77
2022/01/21 01:58:59;;;;;;;9.90;2.20;;;;;;;-1.33;100.00;97057.94;5116536;28;24417;-78
2022/01/21 02:01:25;;;;;;;8.25;2.88;;;;;;;-1.32;100.00;97052.84;5117580;28;24788;-78
2022/01/21 02:03:52;;;;;;;12.32;2.67;;;;;;;-1.36;100.00;97052.84;5116526;28;24429;-77
2022/01/21 02:06:19;;;;;;;5.38;2.30;;;;;;;-1.32;100.00;97055.41;5115590;28;25018;-77
2022/01/21 02:08:46;;;;;;;8.15;2.38;;;;;;;-1.28;100.00;97046.09;5116123;28;24409;-77
2022/01/21 02:11:12;;;;;;;8.23;2.47;;;;;;;-1.26;100.00;97040.19;5115883;28;24432;-77
2022/01/21 02:13:44;;;;;;;8.32;2.65;;;;;;;-1.23;100.00;97024.91;5115820;28;24955;-78
2022/01/21 02:16:29;;;;;;;8.55;2.53;;;;;;;-1.19;100.00;97022.38;5115691;28;24495;-77
2022/01/21 02:21:46;;;;;;;9.57;3.00;;;;;;;-1.47;100.00;97025.69;5115811;28;24479;-77
2022/01/21 02:24:17;;;;;;;8.52;2.38;;;;;;;-1.42;100.00;97030.78;5116126;28;24458;-77
2022/01/21 02:26:45;;;;;;;11.82;2.60;;;;;;;-1.40;100.00;97031.66;5118091;28;24958;-77
2022/01/21 02:29:12;;;;;;;6.60;2.27;;;;;;;-1.28;100.00;97025.75;5118001;28;24505;-77
2022/01/21 02:31:40;;;;;;;11.10;2.80;;;;;;;-1.42;100.00;97025.69;5118183;28;24465;-77
2022/01/21 02:34:09;;;;;;;7.30;2.38;;;;;;;-1.50;100.00;97035.81;5118005;28;24981;-77
2022/01/21 02:36:36;;;;;;;8.88;3.03;;;;;;;-1.51;100.00;97035.84;5115738;28;25170;-77
2022/01/21 02:39:05;;;;;;;9.30;2.83;;;;;;;-1.49;100.00;97044.28;5115793;28;24451;-77
2022/01/21 02:41:32;;;;;;;6.30;2.40;;;;;;;-1.37;100.00;97054.53;5115441;28;24495;-78
2022/01/21 02:43:58;;;;;;;11.85;2.58;;;;;;;-1.33;100.00;97056.25;5115867;28;24422;-78
2022/01/21 02:46:26;;;;;;;9.63;2.55;;;;;;;-1.32;100.00;97049.47;5115163;28;24421;-77
2022/01/21 02:48:52;;;;;;;9.77;2.50;;;;;;;-1.44;100.00;97067.22;5116462;28;24445;-77
2022/01/21 02:51:19;;;;;;;8.07;2.57;;;;;;;-1.38;100.00;97052.81;5114233;28;25008;-77
2022/01/21 02:54:04;;;;;;;11.02;3.03;;;;;;;-1.49;100.00;97057.84;5115669;28;24494;-77
2022/01/21 02:56:33;;;;;;;7.40;2.72;;;;;;;-1.48;100.00;97046.84;5116973;28;24460;-77
2022/01/21 02:59:00;;;;;;;12.98;3.10;;;;;;;-1.57;100.00;97056.13;5117168;28;24433;-78
2022/01/21 03:01:27;;;;;;;12.63;3.20;;;;;;;-1.52;100.00;97056.97;5117436;28;24494;-77
2022/01/21 03:03:55;;;;;;;8.38;2.70;;;;;;;-1.45;100.00;97061.25;5115905;28;24418;-78
2022/01/21 03:06:23;;;;;;;11.45;2.58;;;;;;;-1.52;100.00;97064.59;5114314;28;24475;-78
2022/01/21 03:08:52;;;;;;;10.45;3.05;;;;;;;-1.60;100.00;97067.09;5114302;28;24449;-77
2022/01/21 03:11:19;;;;;;;12.73;2.92;;;;;;;-1.57;100.00;97069.66;5114417;28;24806;-78
2022/01/21 03:13:47;;;;;;;7.60;2.70;;;;;;;-1.63;100.00;97066.22;5114941;28;24417;-78
2022/01/21 03:16:13;;;;;;;15.30;3.03;;;;;;;-1.67;100.00;97064.53;5114390;28;24417;-78
2022/01/21 03:18:40;;;;;;;12.07;3.38;;;;;;;-1.65;100.00;97062.84;5114973;28;24454;-78
2022/01/21 03:21:10;;;;;;;10.48;2.67;;;;;;;-1.58;100.00;97065.44;5114378;28;24428;-77
2022/01/21 03:23:36;;;;;;;9.70;2.67;;;;;;;-1.66;100.00;97054.38;5114065;28;24430;-77
2022/01/21 03:26:03;;;;;;;11.13;3.15;;;;;;;-1.65;100.00;97055.22;5113797;28;24421;-77
2022/01/21 03:28:30;;;;;;;22.08;2.90;;;;;;;-1.69;100.00;97056.06;5113915;28;24467;-77
2022/01/21 03:30:58;;;;;;;12.63;2.80;;;;;;;-1.63;100.00;97049.31;5127661;27;24506;-77
2022/01/21 03:33:25;;;;;;;7.28;2.60;;;;;;;-1.57;100.00;97051.88;5135733;27;24432;-77
2022/01/21 03:35:53;;;;;;;5.63;2.57;;;;;;;-1.56;100.00;97066.31;5136486;27;24425;-78
2022/01/21 03:38:20;;;;;;;8.50;3.03;;;;;;;-1.62;100.00;97060.34;5136597;27;24424;-77
2022/01/21 03:40:47;;;;;;;8.50;2.90;;;;;;;-1.67;100.00;97059.44;5136227;27;24433;-77
2022/01/21 03:43:15;;;;;;;10.95;3.13;;;;;;;-1.57;100.00;97054.41;5136155;27;24421;-77
2022/01/21 03:45:41;;;;;;;8.32;2.72;;;;;;;-1.63;100.00;97058.63;5135578;27;24855;-77
2022/01/21 03:48:09;;;;;;;11.03;3.00;;;;;;;-1.63;100.00;97058.63;5125754;27;24453;-77
2022/01/21 03:50:35;;;;;;;9.75;2.83;;;;;;;-1.61;100.00;97070.50;5136088;27;24942;-77
2022/01/21 03:53:04;;;;;;;13.18;2.80;;;;;;;-1.63;100.00;97069.66;5135329;27;24942;-77
2022/01/21 03:55:31;;;;;;;8.00;2.72;;;;;;;-1.58;100.00;97080.69;5134139;27;24840;-77
2022/01/21 03:57:58;;;;;;;7.88;2.40;;;;;;;-1.40;100.00;97085.00;5137612;27;24453;-77
2022/01/21 04:00:27;;;;;;;9.05;2.50;;;;;;;-1.32;100.00;97085.91;5137965;27;24433;-77
2022/01/21 04:02:54;;;;;;;13.38;3.40;;;;;;;-1.44;100.00;97093.47;5137901;27;24424;-77
2022/01/21 04:05:22;;;;;;;9.52;2.40;;;;;;;-1.47;100.00;97104.44;5135982;27;24428;-77
2022/01/21 04:07:49;;;;;;;14.25;3.17;;;;;;;-1.52;100.00;97085.81;5135842;27;24441;-77
2022/01/21 04:10:16;;;;;;;10.85;2.78;;;;;;;-1.42;100.00;97083.28;5134842;27;24424;-78
2022/01/21 04:12:42;;;;;;;5.78;2.40;;;;;;;-1.50;100.00;97084.09;5134694;27;24416;-77
2022/01/21 04:15:09;;;;;;;8.15;2.70;;;;;;;-1.39;100.00;97074.00;5134130;27;24425;-77
2022/01/21 04:17:36;;;;;;;9.95;2.60;;;;;;;-1.46;100.00;97068.03;5134581;27;24425;-77
2022/01/21 04:20:03;;;;;;;9.05;2.60;;;;;;;-1.60;100.00;97069.66;5135528;27;24920;-77
2022/01/21 04:22:31;;;;;;;6.57;2.53;;;;;;;-1.45;100.00;97071.41;5135070;27;24425;-77
2022/01/21 04:24:59;;;;;;;10.65;2.90;;;;;;;-1.47;100.00;97083.28;5134325;27;24417;-77
2022/01/21 04:27:25;;;;;;;9.50;2.72;;;;;;;-1.47;100.00;97084.13;5134997;27;24464;-77
2022/01/21 04:29:52;;;;;;;10.02;3.00;;;;;;;-1.42;100.00;97103.63;5134660;27;24421;-77
2022/01/21 04:32:19;;;;;;;9.55;3.03;;;;;;;-1.45;100.00;97101.91;5133003;27;24794;-77
2022/01/21 04:34:45;;;;;;;9.90;2.90;;;;;;;-1.42;100.00;97101.09;5132804;27;24956;-77
2022/01/21 04:37:14;;;;;;;7.72;2.65;;;;;;;-1.50;100.00;97098.50;5132400;27;24965;-77
2022/01/21 04:39:48;;;;;;;9.80;2.92;;;;;;;-1.54;100.00;97096.78;5133007;27;24428;-77
2022/01/21 04:47:43;;;;;;;8.43;2.80;;;;;;;-1.55;100.00;97112.88;5133511;28;24490;-77
2022/01/21 04:50:13;;;;;;;10.15;3.03;;;;;;;-1.60;100.00;97115.38;5133311;28;24832;-77
2022/01/21 04:52:40;;;;;;;9.60;3.10;;;;;;;-1.67;100.00;97110.25;5133283;28;25079;-77
2022/01/21 04:55:09;;;;;;;12.90;3.47;;;;;;;-1.68;100.00;97116.16;5133629;28;24420;-77
2022/01/21 04:57:36;;;;;;;9.98;3.33;;;;;;;-1.65;100.00;97114.50;5133073;28;24413;-77
2022/01/21 05:00:03;;;;;;;8.70;3.28;;;;;;;-1.60;100.00;97110.28;5133708;28;24438;-78
2022/01/21 05:02:31;;;;;;;8.45;3.00;;;;;;;-1.65;100.00;97114.50;5134203;28;24494;-77
2022/01/21 05:04:58;;;;;;;10.35;3.30;;;;;;;-1.73;100.00;97117.00;5133799;28;24420;-77
2022/01/21 05:07:26;;;;;;;14.30;3.13;;;;;;;-1.71;100.00;97109.38;5134412;28;24413;-77
2022/01/21 05:09:52;;;;;;;10.55;3.10;;;;;;;-1.78;100.00;97112.72;5134438;28;24428;-77
2022/01/21 05:12:23;;;;;;;7.75;3.20;;;;;;;-1.84;100.00;97113.53;5132925;28;24425;-77
2022/01/21 05:15:04;;;;;;;14.13;3.30;;;;;;;-1.83;100.00;97119.44;5135534;27;24540;-77
2022/01/21 05:17:31;;;;;;;8.35;3.05;;;;;;;-1.77;100.00;97120.34;5137317;27;24509;-77
2022/01/21 05:19:57;;;;;;;7.00;3.17;;;;;;;-1.73;100.00;97119.53;5137452;27;24436;-77
2022/01/21 05:22:24;;;;;;;10.15;3.35;;;;;;;-1.74;100.00;97133.09;5138445;27;24432;-77
2022/01/21 05:24:50;;;;;;;16.37;3.77;;;;;;;-1.83;100.00;97130.47;5140065;27;24428;-77
2022/01/21 05:27:17;;;;;;;11.55;3.17;;;;;;;-1.84;100.00;97131.31;5139946;27;24486;-77
2022/01/21 05:29:45;;;;;;;8.63;3.03;;;;;;;-1.88;100.00;97136.34;5140876;27;24436;-77
2022/01/21 05:32:11;;;;;;;11.70;3.40;;;;;;;-1.91;100.00;97139.72;5140168;27;24425;-77
2022/01/21 05:34:38;;;;;;;12.03;3.17;;;;;;;-1.82;100.00;97144.00;5140030;27;24428;-77
2022/01/21 05:37:04;;;;;;;10.88;3.53;;;;;;;-1.85;100.00;97155.00;5136673;27;24432;-77
2022/01/21 05:39:31;;;;;;;9.27;3.40;;;;;;;-1.77;100.00;97148.28;5140683;27;24499;-77
2022/01/21 05:41:57;;;;;;;8.63;2.75;;;;;;;-1.80;100.00;97145.72;5133377;27;24426;-77
2022/01/21 05:47:09;;;;;;;12.73;4.75;;;;;;;-1.91;100.00;97152.41;5128357;27;24424;-77
2022/01/21 05:49:37;;;;;;;9.85;3.40;;;;;;;-1.85;100.00;97155.00;5131047;27;24452;-77
2022/01/21 05:52:09;;;;;;;10.20;3.33;;;;;;;-1.75;100.00;97159.28;5129239;27;24439;-77
2022/01/21 05:54:36;;;;;;;14.07;3.67;;;;;;;-1.64;100.00;97171.22;5129553;27;24425;-77
2022/01/21 05:57:06;;;;;;;7.80;2.95;;;;;;;-1.75;100.00;97166.06;5128449;27;24504;-77
2022/01/21 05:59:33;;;;;;;9.95;2.92;;;;;;;-1.80;100.00;97163.50;5129048;27;24982;-77
2022/01/21 06:02:00;;;;;;;13.02;4.05;;;;;;;-1.86;100.00;97172.75;5128617;27;24434;-77
2022/01/21 06:04:28;;;;;;;13.55;3.58;;;;;;;-1.87;100.00;97153.28;5128959;27;24430;-74
2022/01/21 06:06:54;;;;;;;11.15;2.90;;;;;;;-1.86;100.00;97167.66;5126335;27;24513;-76
2022/01/21 06:09:21;;;;;;;7.60;2.85;;;;;;;-1.82;100.00;97164.31;5122685;27;24476;-77
2022/01/21 06:11:47;;;;;;;11.50;3.30;;;;;;;-1.84;100.00;97163.47;5116474;28;24514;-77
2022/01/21 06:14:14;;;;;;;10.25;3.30;;;;;;;-1.82;100.00;97162.63;5121432;27;24485;-77
2022/01/21 06:16:40;;;;;;;8.38;3.20;;;;;;;-1.86;100.00;97168.53;5139915;27;24421;-78
2022/01/21 06:19:07;;;;;;;10.40;3.17;;;;;;;-1.95;100.00;97178.63;5142563;27;24958;-78
2022/01/21 06:21:35;;;;;;;9.10;3.17;;;;;;;-1.81;100.00;97181.28;5142699;27;24439;-77
2022/01/21 06:24:01;;;;;;;12.50;3.00;;;;;;;-1.82;100.00;97185.47;5122615;27;24429;-78
2022/01/21 06:26:28;;;;;;;10.57;2.90;;;;;;;-1.76;100.00;97183.00;5114877;28;24422;-77
2022/01/21 06:28:54;;;;;;;13.55;3.58;;;;;;;-1.92;100.00;97180.34;5114237;28;24449;-77
2022/01/21 06:31:21;;;;;;;12.40;3.40;;;;;;;-2.05;100.00;97181.91;5134187;27;24439;-77
2022/01/21 06:33:47;;;;;;;10.35;3.25;;;;;;;-1.93;100.00;97183.69;5136226;27;24465;-77
2022/01/21 06:36:14;;;;;;;10.07;2.90;;;;;;;-2.04;100.00;97184.47;5135429;27;24432;-77
2022/01/21 06:38:42;;;;;;;13.40;3.50;;;;;;;-2.07;100.00;97175.97;5135636;27;24455;-77
2022/01/21 06:41:08;;;;;;;14.90;3.15;;;;;;;-2.07;100.00;97169.19;5135837;27;24428;-77
2022/01/21 06:43:35;;;;;;;10.15;3.38;;;;;;;-2.06;100.00;97177.66;5135595;27;24417;-77
2022/01/21 06:46:01;;;;;;;10.23;3.17;;;;;;;-2.05;100.00;97180.22;5120573;27;24483;-77
2022/01/21 06:48:28;;;;;;;6.68;3.00;;;;;;;-2.03;100.00;97181.09;5120577;28;24457;-78
2022/01/21 06:50:55;;;;;;;10.38;4.32;;;;;;;-2.02;100.00;97194.63;5121619;28;24447;-78
2022/01/21 06:53:21;;;;;;;9.85;3.38;;;;;;;-2.05;100.00;97189.50;5121630;28;24422;-78
2022/01/21 06:55:49;;;;;;;9.17;3.10;;;;;;;-2.05;100.00;97202.22;5121949;28;24797;-78
2022/01/21 06:58:15;;;;;;;8.82;3.05;;;;;;;-2.04;100.00;97207.31;5122418;28;24429;-78
2022/01/21 07:00:42;;;;;;;11.45;3.20;;;;;;;-1.91;100.00;97208.25;5122285;28;24437;-78
2022/01/21 07:03:09;;;;;;;8.13;2.80;;;;;;;-1.83;100.00;97216.78;5117216;28;24993;-76
2022/01/21 07:05:35;;;;;;;9.27;2.95;;;;;;;-1.79;100.00;97212.59;5113409;28;24413;-77
2022/01/21 07:08:02;;;;;;;7.05;2.63;;;;;;;-1.81;100.00;97209.22;5121017;27;24486;-77
2022/01/21 07:10:29;;;;;;;7.80;2.80;;;;;;;-1.95;100.00;97204.84;5134325;27;24436;-77
2022/01/21 07:12:58;;;;;;;8.43;3.13;;;;;;;-1.99;100.00;97209.88;5134031;27;24427;-77
2022/01/21 07:15:25;;;;;;;10.85;3.20;;;;;;;-1.86;100.00;97213.38;5121277;27;24429;-77
2022/01/21 07:17:53;;;;;;;12.20;3.50;;;;;;;-1.99;100.00;97208.19;5113037;28;24479;-76
2022/01/21 07:20:20;;;;;;;8.87;2.80;;;;;;;-1.98;100.00;97209.03;5113260;28;24814;-77
2022/01/21 07:22:46;;;;;;;13.15;3.80;;;;;;;-2.01;100.00;97209.00;5115280;28;24421;-77
2022/01/21 07:25:14;;;;;;;13.02;3.72;;;;;;;-2.08;100.00;97212.31;5116070;28;24430;-76
2022/01/21 07:27:41;;;;;;;9.75;4.03;;;;;;;-2.08;100.00;97220.78;5112840;28;24963;-77
2022/01/21 07:30:11;;;;;;;13.30;3.38;;;;;;;-1.92;100.00;97226.88;5112492;28;24458;-77
2022/01/21 07:32:38;;;;;;;8.43;3.47;;;;;;;-1.89;100.00;97216.75;5127056;27;24505;-73
2022/01/21 07:35:07;;;;;;;13.07;3.90;;;;;;;-1.99;100.00;97214.97;5124893;27;24429;-75
2022/01/21 07:37:33;;;;;;;6.43;2.78;;;;;;;-1.84;100.00;97224.41;5127514;27;24959;-75
2022/01/21 07:40:00;;;;;;;11.63;3.60;;;;;;;-1.93;100.00;97219.25;5112234;28;24429;-75
2022/01/21 07:42:28;;;;;;;13.50;3.10;;;;;;;-1.78;100.00;97217.72;5111518;28;24425;-76
2022/01/21 07:44:54;;;;;;;13.88;3.30;;;;;;;-1.92;100.00;97218.41;5112431;28;25330;-75
2022/01/21 07:47:22;;;;;;;19.38;3.30;;;;;;;-1.85;100.00;97222.72;5111509;28;24425;-75
2022/01/21 07:49:49;;;;;;;10.45;2.90;;;;;;;-1.75;100.00;97219.41;5111523;28;24495;-75
2022/01/21 07:52:16;;;;;;;6.47;2.72;;;;;;;-1.58;100.00;97225.50;5111976;27;24421;-78
2022/01/21 07:54:42;;;;;;;10.43;3.15;;;;;;;-1.68;100.00;97233.00;5119688;27;24433;-77
2022/01/21 07:57:10;;;;;;;7.63;3.08;;;;;;;-1.64;100.00;97229.66;5111813;28;24561;-77
2022/01/21 07:59:37;;;;;;;7.82;2.75;;;;;;;-1.69;100.00;97232.16;5117277;27;24439;-76
2022/01/21 08:02:05;;;;;;;9.57;2.78;;;;;;;-1.66;100.00;97233.88;5132405;27;25277;-76
2022/01/21 08:04:33;;;;;;;8.18;3.20;;;;;;;-1.61;100.00;97239.84;5133446;27;24833;-77
2022/01/21 08:06:59;;;;;;;9.15;3.25;;;;;;;-1.65;100.00;97235.59;5130159;27;24429;-77
2022/01/21 08:09:26;;;;;;;8.82;4.05;;;;;;;-1.79;100.00;97228.69;5132815;27;24453;-77
2022/01/21 08:11:53;;;;;;;10.48;3.85;;;;;;;-1.87;100.00;97230.31;5133282;27;24420;-77
2022/01/21 08:14:20;;;;;;;15.05;4.53;;;;;;;-1.81;100.00;97240.53;5130447;27;24456;-77
2022/01/21 08:16:46;;;;;;;12.68;4.38;;;;;;;-1.78;100.00;97243.09;5112592;28;24975;-77
2022/01/21 08:19:14;;;;;;;11.02;4.30;;;;;;;-1.69;100.00;97233.84;5112672;28;24413;-76
2022/01/21 08:21:42;;;;;;;9.82;4.65;;;;;;;-1.63;100.00;97232.22;5112446;28;24461;-76
2022/01/21 08:24:09;;;;;;;11.82;4.72;;;;;;;-1.63;100.00;97234.78;5124768;27;24458;-78
2022/01/21 08:26:37;;;;;;;9.48;3.55;;;;;;;-1.59;100.00;97231.41;5132687;27;24429;-77
2022/01/21 08:29:05;;;;;;;8.45;3.33;;;;;;;-1.75;100.00;97235.50;5132517;27;24828;-77
2022/01/21 08:31:32;;;;;;;13.65;4.07;;;;;;;-1.81;100.00;97227.00;5115171;27;24989;-76
2022/01/21 08:33:59;;;;;;;12.98;5.20;;;;;;;-1.69;100.00;97233.84;5111636;28;24424;-76
2022/01/21 08:36:26;;;;;;;10.43;3.83;;;;;;;-1.72;100.00;97232.97;5111341;28;24432;-76
2022/01/21 08:38:55;;;;;;;10.55;4.60;;;;;;;-1.67;100.00;97230.47;5111340;28;24962;-76
2022/01/21 08:41:22;;;;;;;12.00;3.20;;;;;;;-1.59;100.00;97228.03;5130869;27;24441;-76
2022/01/21 08:43:49;;;;;;;12.48;3.15;;;;;;;-1.62;100.00;97241.53;5132287;28;24456;-76
2022/01/21 08:46:15;;;;;;;9.85;4.05;;;;;;;-1.64;100.00;97248.28;5131531;28;24828;-76
2022/01/21 08:48:44;;;;;;;10.17;3.43;;;;;;;-1.76;100.00;97248.19;5132969;27;24905;-76
2022/01/21 08:51:13;;;;;;;8.90;3.70;;;;;;;-1.66;100.00;97251.69;5135771;27;24707;-76
2022/01/21 08:53:41;;;;;;;8.15;3.83;;;;;;;-1.57;100.00;97255.13;5132889;27;24487;-77
2022/01/21 08:56:12;;;;;;;12.75;3.60;;;;;;;-1.58;100.00;97258.50;5115190;28;25011;-76
2022/01/21 08:58:39;;;;;;;10.63;3.58;;;;;;;-1.57;100.00;97264.44;5115595;28;24498;-76
2022/01/21 09:01:06;;;;;;;12.27;4.20;;;;;;;-1.51;100.00;97260.28;5136500;27;24927;-77
2022/01/21 09:03:33;;;;;;;9.00;3.75;;;;;;;-1.54;100.00;97260.25;5138275;27;24413;-76
2022/01/21 09:06:00;;;;;;;14.18;4.95;;;;;;;-1.42;100.00;97268.81;5135564;27;24417;-76
2022/01/21 09:08:30;;;;;;;10.02;4.13;;;;;;;-1.42;100.00;97271.34;5135271;27;24811;-77
2022/01/21 09:10:58;;;;;;;9.85;4.60;;;;;;;-1.42;100.00;97276.44;5135697;27;24447;-77
2022/01/21 09:13:28;;;;;;;8.57;3.45;;;;;;;-1.52;100.00;97283.09;5135608;27;24771;-78
2022/01/21 09:15:58;;;;;;;10.65;4.00;;;;;;;-1.58;100.00;97267.81;5136760;27;24786;-76
2022/01/21 09:18:25;;;;;;;12.98;4.07;;;;;;;-1.40;100.00;97272.22;5135535;27;24519;-76
2022/01/21 09:20:52;;;;;;;10.18;3.88;;;;;;;-1.27;100.00;97267.22;5136307;27;24512;-77
2022/01/21 09:23:18;;;;;;;8.30;4.05;;;;;;;-1.16;100.00;97262.22;5136408;27;24799;-72
2022/01/21 09:25:45;;;;;;;12.75;4.72;;;;;;;-1.14;100.00;97259.72;5135071;27;24420;-72
2022/01/21 09:28:11;;;;;;;9.55;3.42;;;;;;;-1.18;100.00;97258.84;5134697;27;24884;-73
2022/01/21 09:30:39;;;;;;;10.43;3.57;;;;;;;-1.11;100.00;97269.88;5134581;27;24847;-72
2022/01/21 09:33:06;;;;;;;10.15;3.75;;;;;;;-1.03;100.00;97266.56;5135075;27;24413;-69
2022/01/21 09:35:32;;;;;;;15.10;3.70;;;;;;;-1.03;100.00;97269.09;5131508;27;24432;-71
2022/01/21 09:37:59;;;;;;;13.55;3.38;;;;;;;-0.96;100.00;97267.47;5133494;27;24432;-72
2022/01/21 09:40:32;;;;;;;12.20;3.40;;;;;;;-0.88;100.00;97270.91;5134635;27;24958;-72
2022/01/21 09:42:59;;;;;;;9.07;2.93;;;;;;;-0.76;100.00;97260.78;5129367;27;24520;-73
2022/01/21 09:45:28;;;;;;;10.30;4.30;;;;;;;-0.70;100.00;97259.97;5125644;27;24986;-73
2022/01/21 09:47:58;;;;;;;14.57;3.55;;;;;;;-0.83;100.00;97256.50;5134246;27;24425;-72
2022/01/21 09:50:25;;;;;;;12.30;4.65;;;;;;;-0.79;100.00;97260.75;5134119;27;24996;-72
2022/01/21 09:52:54;;;;;;;10.32;3.75;;;;;;;-0.72;100.00;97264.19;5133822;27;24482;-72
2022/01/21 09:55:23;;;;;;;11.75;3.47;;;;;;;-0.84;100.00;97276.84;5134408;27;24421;-72
2022/01/21 09:57:51;;;;;;;13.00;4.22;;;;;;;-0.92;100.00;97271.72;5134024;27;24420;-73
2022/01/21 10:00:19;;;;;;;17.95;4.00;;;;;;;-0.73;100.00;97283.69;5124605;27;24433;-73
2022/01/21 10:02:46;;;;;;;11.15;4.45;;;;;;;-0.58;100.00;97280.38;5113797;28;24432;-73
2022/01/21 10:05:14;;;;;;;11.05;4.05;;;;;;;-0.70;100.00;97280.31;5119066;27;25034;-73
2022/01/21 10:07:42;;;;;;;10.82;4.35;;;;;;;-0.67;100.00;97280.31;5113304;28;24466;-73
2022/01/21 10:10:09;;;;;;;12.27;3.65;;;;;;;-0.72;100.00;97289.63;5112583;28;24452;-73
2022/01/21 10:12:38;;;;;;;14.38;3.65;;;;;;;-0.79;100.00;97295.53;5113245;28;24935;-74
2022/01/21 10:15:07;;;;;;;10.85;3.63;;;;;;;-0.78;100.00;97293.00;5112546;28;24518;-73
2022/01/21 10:17:34;;;;;;;11.82;3.40;;;;;;;-0.80;100.00;97286.19;5113609;28;24779;-72
2022/01/21 10:20:14;;;;;;;9.23;3.13;;;;;;;-0.75;100.00;97293.00;5113294;28;24439;-74
2022/01/21 10:22:57;;;;;;;11.07;3.55;;;;;;;-0.66;100.00;97293.91;5112266;28;24420;-75
2022/01/21 10:25:24;;;;;;;12.73;3.25;;;;;;;-0.47;100.00;97293.16;5111744;27;24468;-74
2022/01/21 10:27:50;;;;;;;9.03;3.43;;;;;;;-0.40;100.00;97294.06;5113019;28;24977;-75
2022/01/21 10:30:21;;;;;;;15.85;3.33;;;;;;;-0.32;100.00;97294.94;5112548;28;24456;-75
2022/01/21 10:32:47;;;;;;;8.35;2.92;;;;;;;-0.21;100.00;97290.72;5113191;28;24418;-75
2022/01/21 10:35:22;;;;;;;7.53;2.90;;;;;;;-0.17;100.00;97289.06;5112836;27;24462;-75
2022/01/21 10:37:49;;;;;;;9.10;2.97;;;;;;;-0.31;100.00;97284.75;5111790;28;24970;-73
2022/01/21 10:40:16;;;;;;;7.30;2.75;;;;;;;-0.30;100.00;97286.47;5113089;28;24429;-74
2022/01/21 10:42:43;;;;;;;11.57;2.97;;;;;;;-0.41;100.00;97288.09;5113131;28;24410;-74
2022/01/21 10:45:11;;;;;;;6.95;2.75;;;;;;;-0.25;100.00;97292.41;5112293;28;24425;-73
2022/01/21 10:47:40;;;;;;;11.20;3.47;;;;;;;-0.39;100.00;97288.09;5112920;28;24428;-75
2022/01/21 10:50:11;;;;;;;11.25;2.95;;;;;;;-0.60;100.00;97291.38;5112244;28;24966;-74
2022/01/21 10:52:41;;;;;;;7.10;2.90;;;;;;;-0.47;100.00;97294.88;5113054;28;24500;-74
2022/01/21 10:55:27;;;;;;;6.80;2.72;;;;;;;-0.43;100.00;97294.88;5077199;28;24425;-74
2022/01/21 10:58:06;;;;;;;6.57;2.47;;;;;;;-0.18;100.00;97289.91;5071963;28;24510;-74
2022/01/21 11:00:33;;;;;;;7.90;2.70;;;;;;;-0.23;100.00;97289.00;5071035;28;24435;-74
2022/01/21 11:03:10;;;;;;;8.93;3.28;;;;;;;-0.31;100.00;97294.94;5072031;28;24426;-74
2022/01/21 11:05:41;;;;;;;8.02;2.45;;;;;;;-0.24;100.00;97293.25;5085525;28;24434;-75
2022/01/21 11:08:10;;;;;;;7.32;2.60;;;;;;;0.13;100.00;97280.66;5091906;28;24418;-74
2022/01/21 11:10:54;;;;;;;9.75;2.72;;;;;;;0.30;98.87;97275.56;5071134;28;24482;-74
2022/01/21 11:13:40;;;;;;;11.60;3.00;;;;;;;0.00;100.00;97279.78;5071727;28;24425;-74
2022/01/21 11:16:15;;;;;;;8.80;2.45;;;;;;;-0.28;100.00;97274.56;5070847;28;24422;-74
2022/01/21 11:19:07;;;;;;;8.40;2.33;;;;;;;-0.22;100.00;97281.41;5071588;28;24940;-74
2022/01/21 11:21:42;;;;;;;13.25;2.40;;;;;;;-0.33;100.00;97272.88;5071476;28;24995;-74
2022/01/21 11:24:11;;;;;;;10.20;2.72;;;;;;;-0.25;100.00;97276.28;5081318;28;24429;-74
2022/01/21 11:26:38;;;;;;;6.05;1.95;;;;;;;-0.14;100.00;97276.34;5071173;28;24418;-74
2022/01/21 11:29:06;;;;;;;8.13;2.83;;;;;;;-0.21;100.00;97272.06;5070931;28;24529;-74
2022/01/21 11:31:33;;;;;;;12.82;3.90;;;;;;;-0.09;100.00;97269.53;5071044;28;24542;-73
2022/01/21 11:34:00;;;;;;;12.87;6.60;;;;;;;-0.09;100.00;97264.44;5071027;28;25267;-74
2022/01/21 11:36:27;;;;;;;9.43;2.75;;;;;;;-0.24;100.00;97257.63;5091404;28;24437;-75
2022/01/21 11:38:56;;;;;;;9.07;2.83;;;;;;;-0.36;100.00;97268.59;5077928;28;25209;-74
2022/01/21 11:41:25;;;;;;;8.10;2.60;;;;;;;-0.38;100.00;97259.25;5070896;28;24514;-74
2022/01/21 11:44:00;;;;;;;5.25;2.50;;;;;;;-0.27;100.00;97263.53;5071113;28;24449;-74
2022/01/21 11:46:48;;;;;;;11.32;2.50;;;;;;;-0.25;100.00;97258.47;5070306;28;24426;-74
2022/01/21 11:49:19;;;;;;;11.13;2.55;;;;;;;-0.11;100.00;97258.50;5071054;28;24517;-74
2022/01/21 11:51:47;;;;;;;8.80;2.50;;;;;;;-0.08;100.00;97263.59;5070825;28;24427;-74
2022/01/21 11:54:14;;;;;;;7.20;2.30;;;;;;;-0.09;100.00;97262.75;5083973;28;24433;-74
2022/01/21 11:56:46;;;;;;;10.70;2.30;;;;;;;-0.17;100.00;97253.41;5090639;28;24496;-74
2022/01/21 11:59:22;;;;;;;7.78;2.55;;;;;;;-0.23;100.00;97254.22;5085712;28;24511;-74
2022/01/21 12:01:49;;;;;;;6.57;2.58;;;;;;;-0.21;100.00;97252.53;5080024;28;24902;-74
2022/01/21 12:04:39;;;;;;;8.02;2.15;;;;;;;-0.19;100.00;97252.53;5087461;28;21308;-74
2022/01/21 12:07:55;;;;;;;9.37;3.07;;;;;;;-0.20;100.00;97243.19;5069588;28;24438;-74
2022/01/21 12:10:32;;;;;;;12.02;2.83;;;;;;;-0.02;100.00;97243.25;5070517;28;24449;-73